Time;durP1;ratioP1;P1;durP2;ratioP2;P2;SDS_P1;SDS_P2;PMS_P1;PMS_P2;Temp;Humidity;BMP_temperature;BMP_pressure;BME280_temperature;BME280_humidity;BME280_pressure;Samples;Min_cycle;Max_cycle;Signal;HPM_P1;HPM_P2
2023/03/13 00:00:51;;;;;;;3.30;1.30;;;;;;;;;;6132918;23;20195;-75
2023/03/13 00:03:17;;;;;;;3.15;1.40;;;;;;;;;;6133585;23;20024;-77
2023/03/13 00:05:42;;;;;;;2.42;1.40;;;;;;;;;;6133456;23;20002;-77
2023/03/13 00:08:08;;;;;;;3.55;1.50;;;;;;;;;;6132796;23;20001;-75
2023/03/13 00:10:37;;;;;;;3.92;1.27;;;;;;;;;;6132930;23;20041;-76
2023/03/13 00:13:02;;;;;;;2.92;1.33;;;;;;;;;;6133047;23;20237;-77
2023/03/13 00:15:28;;;;;;;2.90;1.60;;;;;;;;;;6132095;23;20310;-78
2023/03/13 00:17:53;;;;;;;3.35;1.45;;;;;;;;;;6131103;23;20002;-76
2023/03/13 00:20:18;;;;;;;3.47;1.50;;;;;;;;;;6133098;23;20057;-76
2023/03/13 00:22:44;;;;;;;3.00;1.80;;;;;;;;;;6132559;23;20002;-79
2023/03/13 00:25:09;;;;;;;3.53;1.75;;;;;;;;;;6131188;23;20009;-78
2023/03/13 00:27:35;;;;;;;3.45;2.15;;;;;;;;;;6132755;23;20002;-75
2023/03/13 00:30:00;;;;;;;5.30;2.53;;;;;;;;;;6132276;23;20006;-76
2023/03/13 00:32:25;;;;;;;3.20;2.00;;;;;;;;;;6128209;23;20014;-75
2023/03/13 00:34:51;;;;;;;5.97;2.10;;;;;;;;;;6124590;23;20012;-74
2023/03/13 00:37:16;;;;;;;3.03;1.65;;;;;;;;;;6132956;23;20021;-78
2023/03/13 00:39:41;;;;;;;4.30;1.83;;;;;;;;;;6133558;23;19998;-80
2023/03/13 00:42:07;;;;;;;6.13;2.10;;;;;;;;;;6132452;23;20221;-76
2023/03/13 00:44:32;;;;;;;4.40;2.28;;;;;;;;;;6132405;23;20053;-76
2023/03/13 00:46:58;;;;;;;6.78;2.85;;;;;;;;;;6134502;23;20005;-76
2023/03/13 00:49:23;;;;;;;5.72;3.05;;;;;;;;;;6131491;23;20438;-79
2023/03/13 00:51:49;;;;;;;6.07;3.28;;;;;;;;;;6128543;23;19997;-78
2023/03/13 00:54:14;;;;;;;7.32;3.45;;;;;;;;;;6109188;23;20063;-78
2023/03/13 00:56:39;;;;;;;6.60;3.30;;;;;;;;;;6134420;23;19998;-79
2023/03/13 00:59:05;;;;;;;6.70;3.58;;;;;;;;;;6134616;23;20048;-80
2023/03/13 01:01:33;;;;;;;5.82;3.38;;;;;;;;;;6108865;23;20002;-76
2023/03/13 01:04:04;;;;;;;6.15;3.33;;;;;;;;;;6132446;23;20057;-76
2023/03/13 01:06:31;;;;;;;6.30;3.30;;;;;;;;;;6133482;23;20005;-78
2023/03/13 01:08:58;;;;;;;5.53;3.28;;;;;;;;;;6134441;23;20057;-77
2023/03/13 01:11:26;;;;;;;6.60;3.17;;;;;;;;;;6131360;23;20000;-77
2023/03/13 01:13:59;;;;;;;6.57;3.33;;;;;;;;;;6133914;23;19994;-76
2023/03/13 01:16:27;;;;;;;6.60;3.78;;;;;;;;;;6134720;23;20020;-78
2023/03/13 01:18:55;;;;;;;5.88;3.40;;;;;;;;;;6134489;23;19997;-77
2023/03/13 01:21:23;;;;;;;5.55;2.92;;;;;;;;;;6134336;23;20009;-80
2023/03/13 01:23:49;;;;;;;6.75;3.00;;;;;;;;;;6134453;23;20311;-77
2023/03/13 01:26:15;;;;;;;6.60;2.70;;;;;;;;;;6133498;23;19994;-78
2023/03/13 01:28:41;;;;;;;6.43;2.83;;;;;;;;;;6132896;23;20006;-75
2023/03/13 01:31:10;;;;;;;4.72;2.75;;;;;;;;;;6133533;23;20056;-76
2023/03/13 01:33:35;;;;;;;5.65;3.03;;;;;;;;;;6132830;23;20010;-77
2023/03/13 01:36:02;;;;;;;4.85;2.95;;;;;;;;;;6134727;23;20058;-76
2023/03/13 01:38:28;;;;;;;4.03;3.00;;;;;;;;;;6134567;23;20032;-75
2023/03/13 01:40:53;;;;;;;5.45;2.80;;;;;;;;;;6134521;23;20006;-77
2023/03/13 01:43:27;;;;;;;4.97;2.80;;;;;;;;;;6134647;23;20002;-76
2023/03/13 01:45:57;;;;;;;5.10;3.03;;;;;;;;;;6134960;23;20004;-74
2023/03/13 01:48:36;;;;;;;4.20;3.10;;;;;;;;;;6134679;23;20002;-78
2023/03/13 01:51:07;;;;;;;4.72;2.90;;;;;;;;;;6134707;23;20001;-77
2023/03/13 01:53:33;;;;;;;6.15;3.13;;;;;;;;;;6134147;23;19998;-76
2023/03/13 01:56:01;;;;;;;6.35;3.20;;;;;;;;;;6134417;23;20012;-75
2023/03/13 01:58:28;;;;;;;4.13;3.00;;;;;;;;;;6132808;23;20010;-75
2023/03/13 02:00:53;;;;;;;4.85;2.97;;;;;;;;;;6131536;23;20073;-75
2023/03/13 02:03:20;;;;;;;4.95;2.80;;;;;;;;;;6105562;23;20006;-76
2023/03/13 02:05:47;;;;;;;5.10;3.00;;;;;;;;;;6134340;23;19994;-75
2023/03/13 02:08:25;;;;;;;4.70;3.20;;;;;;;;;;6132945;23;20010;-76
2023/03/13 02:10:59;;;;;;;4.30;3.20;;;;;;;;;;6133103;23;20273;-77
2023/03/13 02:13:26;;;;;;;4.15;2.85;;;;;;;;;;6133488;23;20316;-77
2023/03/13 02:15:52;;;;;;;5.95;3.20;;;;;;;;;;6134135;23;20013;-78
2023/03/13 02:18:17;;;;;;;5.38;3.50;;;;;;;;;;6133778;23;20052;-76
2023/03/13 02:20:42;;;;;;;4.47;3.00;;;;;;;;;;6134216;23;20182;-77
2023/03/13 02:23:43;;;;;;;5.78;3.95;;;;;;;;;;6134386;23;20002;-77
2023/03/13 02:26:08;;;;;;;7.97;3.90;;;;;;;;;;5982871;23;20059;-77
2023/03/13 02:28:37;;;;;;;6.85;3.75;;;;;;;;;;6133856;23;20009;-77
2023/03/13 02:31:04;;;;;;;5.72;3.50;;;;;;;;;;6131642;23;20105;-77
2023/03/13 02:33:34;;;;;;;7.03;3.30;;;;;;;;;;6132825;23;20201;-77
2023/03/13 02:36:01;;;;;;;5.95;3.15;;;;;;;;;;6134327;23;19998;-75
2023/03/13 02:38:32;;;;;;;4.97;2.80;;;;;;;;;;6134348;23;20045;-79
2023/03/13 02:40:59;;;;;;;3.80;2.72;;;;;;;;;;6134146;23;20124;-77
2023/03/13 02:43:51;;;;;;;4.15;2.60;;;;;;;;;;6133966;23;20037;-77
2023/03/13 02:46:19;;;;;;;6.53;3.08;;;;;;;;;;6127281;23;20010;-78
2023/03/13 02:48:50;;;;;;;5.28;2.63;;;;;;;;;;6132926;23;20006;-78
2023/03/13 02:51:30;;;;;;;5.22;2.83;;;;;;;;;;6130834;23;20009;-76
2023/03/13 02:54:00;;;;;;;4.45;2.72;;;;;;;;;;6133991;23;20045;-77
2023/03/13 02:56:27;;;;;;;7.13;2.90;;;;;;;;;;6133886;23;20005;-77
2023/03/13 02:58:53;;;;;;;4.65;2.40;;;;;;;;;;6133754;23;20406;-76
2023/03/13 03:01:18;;;;;;;8.82;2.67;;;;;;;;;;6133360;23;20261;-76
2023/03/13 03:03:44;;;;;;;4.10;2.63;;;;;;;;;;6132862;23;20006;-78
2023/03/13 03:06:09;;;;;;;4.43;2.60;;;;;;;;;;6133258;23;20386;-77
2023/03/13 03:08:35;;;;;;;4.15;2.67;;;;;;;;;;6133123;23;20002;-76
2023/03/13 03:11:00;;;;;;;4.78;2.30;;;;;;;;;;6132587;23;20079;-76
2023/03/13 03:13:26;;;;;;;3.33;2.40;;;;;;;;;;6132550;23;20002;-76
2023/03/13 03:15:51;;;;;;;3.47;2.20;;;;;;;;;;6132619;23;19998;-76
2023/03/13 03:18:17;;;;;;;4.43;1.90;;;;;;;;;;6133726;23;20196;-78
2023/03/13 03:20:42;;;;;;;3.80;2.28;;;;;;;;;;6133050;23;20049;-77
2023/03/13 03:23:08;;;;;;;2.72;1.92;;;;;;;;;;6132768;23;20048;-76
2023/03/13 03:25:33;;;;;;;4.47;1.90;;;;;;;;;;6132106;23;20529;-76
2023/03/13 03:27:59;;;;;;;2.78;1.65;;;;;;;;;;6133131;23;20009;-77
2023/03/13 03:30:24;;;;;;;3.13;1.70;;;;;;;;;;6132922;23;19998;-77
2023/03/13 03:32:49;;;;;;;3.30;1.80;;;;;;;;;;6133402;23;20002;-76
2023/03/13 03:35:15;;;;;;;4.57;1.85;;;;;;;;;;6132956;23;20163;-76
2023/03/13 03:37:40;;;;;;;4.40;1.90;;;;;;;;;;6132772;23;20002;-78
2023/03/13 03:40:06;;;;;;;2.55;1.80;;;;;;;;;;6132826;23;20002;-77
2023/03/13 03:42:33;;;;;;;3.85;1.95;;;;;;;;;;6133377;23;20086;-76
2023/03/13 03:44:58;;;;;;;4.78;2.13;;;;;;;;;;6132991;23;19994;-76
2023/03/13 03:47:23;;;;;;;3.45;2.10;;;;;;;;;;6133323;23;20048;-76
2023/03/13 03:49:49;;;;;;;4.47;2.50;;;;;;;;;;6133694;23;19998;-77
2023/03/13 03:52:14;;;;;;;4.55;2.70;;;;;;;;;;6133643;23;20122;-77
2023/03/13 03:54:40;;;;;;;4.10;2.50;;;;;;;;;;6133399;23;20072;-77
2023/03/13 03:57:05;;;;;;;3.65;2.15;;;;;;;;;;6133545;23;20017;-78
2023/03/13 03:59:30;;;;;;;3.17;2.05;;;;;;;;;;6133641;23;20114;-75
2023/03/13 04:01:56;;;;;;;2.90;1.92;;;;;;;;;;6133645;23;20235;-79
2023/03/13 04:04:21;;;;;;;3.70;2.25;;;;;;;;;;6133645;23;20006;-78
2023/03/13 04:06:47;;;;;;;3.80;2.15;;;;;;;;;;6133909;23;20006;-76
2023/03/13 04:09:12;;;;;;;4.80;2.00;;;;;;;;;;6133718;23;20167;-77
2023/03/13 04:11:37;;;;;;;3.20;1.83;;;;;;;;;;6107624;23;20013;-78
2023/03/13 04:14:03;;;;;;;3.80;1.90;;;;;;;;;;6133823;23;19998;-78
2023/03/13 04:16:28;;;;;;;3.67;1.92;;;;;;;;;;6133275;23;20002;-77
2023/03/13 04:18:53;;;;;;;4.45;2.10;;;;;;;;;;6133276;23;20189;-76
2023/03/13 04:21:19;;;;;;;4.15;2.40;;;;;;;;;;6133688;23;20180;-76
2023/03/13 04:23:44;;;;;;;5.35;2.40;;;;;;;;;;6133726;23;20009;-78
2023/03/13 04:26:10;;;;;;;4.40;2.53;;;;;;;;;;6132825;23;19998;-79
2023/03/13 04:28:35;;;;;;;3.95;1.95;;;;;;;;;;6132898;23;20231;-77
2023/03/13 04:31:00;;;;;;;3.00;2.15;;;;;;;;;;6106951;23;20002;-77
2023/03/13 04:33:26;;;;;;;4.88;1.95;;;;;;;;;;6133218;23;19998;-77
2023/03/13 04:35:51;;;;;;;3.03;2.00;;;;;;;;;;6133630;23;20293;-76
2023/03/13 04:38:17;;;;;;;4.72;2.03;;;;;;;;;;6133608;23;19998;-79
2023/03/13 04:40:42;;;;;;;4.47;2.10;;;;;;;;;;6133530;23;20002;-76
2023/03/13 04:43:08;;;;;;;4.35;2.20;;;;;;;;;;6132816;23;20026;-77
2023/03/13 04:45:33;;;;;;;3.75;2.08;;;;;;;;;;6132754;23;20225;-78
2023/03/13 04:47:59;;;;;;;3.75;1.98;;;;;;;;;;6133190;23;19997;-77
2023/03/13 04:50:24;;;;;;;4.80;2.20;;;;;;;;;;6132786;23;19997;-76
2023/03/13 04:52:50;;;;;;;6.32;2.00;;;;;;;;;;6132412;23;20024;-77
2023/03/13 04:55:16;;;;;;;2.88;1.80;;;;;;;;;;6133509;23;20045;-77
2023/03/13 04:57:41;;;;;;;3.47;2.20;;;;;;;;;;6132601;23;20014;-76
2023/03/13 05:00:10;;;;;;;4.43;1.95;;;;;;;;;;6132759;23;20022;-77
2023/03/13 05:02:35;;;;;;;3.58;1.73;;;;;;;;;;6107442;23;20025;-77
2023/03/13 05:05:01;;;;;;;6.07;2.05;;;;;;;;;;6132721;23;20298;-75
2023/03/13 05:07:26;;;;;;;4.32;1.98;;;;;;;;;;6134259;23;20011;-78
2023/03/13 05:09:52;;;;;;;3.25;2.08;;;;;;;;;;6135035;23;19994;-77
2023/03/13 05:12:17;;;;;;;2.88;1.95;;;;;;;;;;6132133;23;20309;-77
2023/03/13 05:14:42;;;;;;;2.85;1.88;;;;;;;;;;6134153;23;19989;-77
2023/03/13 05:17:09;;;;;;;2.53;1.92;;;;;;;;;;6109016;23;20069;-77
2023/03/13 05:19:35;;;;;;;3.10;1.88;;;;;;;;;;6133653;23;19994;-75
2023/03/13 05:22:00;;;;;;;3.10;1.90;;;;;;;;;;6133292;23;20009;-76
2023/03/13 05:24:26;;;;;;;3.38;1.88;;;;;;;;;;6135455;23;19998;-75
2023/03/13 05:26:52;;;;;;;4.25;1.83;;;;;;;;;;6134748;23;20005;-75
2023/03/13 05:29:17;;;;;;;3.97;1.95;;;;;;;;;;6134907;23;20000;-75
2023/03/13 05:31:42;;;;;;;3.40;1.88;;;;;;;;;;6135064;23;20053;-78
2023/03/13 05:34:08;;;;;;;3.55;1.80;;;;;;;;;;6108905;23;20002;-78
2023/03/13 05:36:33;;;;;;;2.83;1.83;;;;;;;;;;6134548;23;20066;-77
2023/03/13 05:39:00;;;;;;;2.38;1.70;;;;;;;;;;6108624;23;19990;-79
2023/03/13 05:41:25;;;;;;;2.78;1.65;;;;;;;;;;6134407;23;20032;-77
2023/03/13 05:43:51;;;;;;;3.90;1.67;;;;;;;;;;6134629;23;20002;-77
2023/03/13 05:46:16;;;;;;;3.08;1.80;;;;;;;;;;6134389;23;20290;-77
2023/03/13 05:48:44;;;;;;;7.30;2.10;;;;;;;;;;6133335;23;20022;-76
2023/03/13 05:51:09;;;;;;;3.60;1.90;;;;;;;;;;6132967;23;19998;-77
2023/03/13 05:53:35;;;;;;;5.15;2.00;;;;;;;;;;6134648;23;20009;-78
2023/03/13 05:56:01;;;;;;;3.28;1.67;;;;;;;;;;6134551;23;19998;-77
2023/03/13 05:58:26;;;;;;;2.47;1.77;;;;;;;;;;6104404;23;20037;-77
2023/03/13 06:00:52;;;;;;;3.35;1.80;;;;;;;;;;6133394;23;20005;-77
2023/03/13 06:03:17;;;;;;;4.32;1.70;;;;;;;;;;6134063;23;20194;-77
2023/03/13 06:05:43;;;;;;;2.72;1.70;;;;;;;;;;6134635;23;20009;-76
2023/03/13 06:08:08;;;;;;;3.22;1.90;;;;;;;;;;6132397;23;20009;-77
2023/03/13 06:10:33;;;;;;;3.72;1.90;;;;;;;;;;6133694;23;20300;-77
2023/03/13 06:12:59;;;;;;;3.15;1.77;;;;;;;;;;6134687;23;19998;-74
2023/03/13 06:15:24;;;;;;;4.80;2.00;;;;;;;;;;6134758;23;20057;-75
2023/03/13 06:17:50;;;;;;;3.63;1.60;;;;;;;;;;6134313;23;20041;-75
2023/03/13 06:20:15;;;;;;;2.75;1.80;;;;;;;;;;6132695;23;20170;-74
2023/03/13 06:22:41;;;;;;;4.80;2.10;;;;;;;;;;6107385;23;20017;-74
2023/03/13 06:25:06;;;;;;;3.33;1.85;;;;;;;;;;6133058;23;19994;-76
2023/03/13 06:27:32;;;;;;;2.42;1.50;;;;;;;;;;6131604;23;20281;-77
2023/03/13 06:29:57;;;;;;;2.67;1.83;;;;;;;;;;6107537;23;20010;-79
2023/03/13 06:32:23;;;;;;;4.50;1.88;;;;;;;;;;6133419;23;20113;-77
2023/03/13 06:34:48;;;;;;;3.67;1.60;;;;;;;;;;6107207;23;20021;-79
2023/03/13 06:37:17;;;;;;;4.20;1.88;;;;;;;;;;6133506;23;20168;-78
2023/03/13 06:39:42;;;;;;;4.28;1.80;;;;;;;;;;6133449;23;20006;-76
2023/03/13 06:42:07;;;;;;;3.53;1.88;;;;;;;;;;6133228;23;20061;-78
2023/03/13 06:44:33;;;;;;;4.13;1.73;;;;;;;;;;6133339;23;20221;-78
2023/03/13 06:46:58;;;;;;;4.65;1.90;;;;;;;;;;6132012;23;19998;-76
2023/03/13 06:49:23;;;;;;;4.32;2.00;;;;;;;;;;6132349;23;20028;-75
2023/03/13 06:51:49;;;;;;;5.82;1.85;;;;;;;;;;6131895;23;20001;-76
2023/03/13 06:54:14;;;;;;;2.85;1.90;;;;;;;;;;6132159;23;20025;-76
2023/03/13 06:56:40;;;;;;;3.13;2.08;;;;;;;;;;6130115;23;20001;-76
2023/03/13 06:59:05;;;;;;;4.50;2.10;;;;;;;;;;6132300;23;20076;-77
2023/03/13 07:01:31;;;;;;;5.50;2.00;;;;;;;;;;6131781;23;20000;-76
2023/03/13 07:03:56;;;;;;;3.53;2.00;;;;;;;;;;6132299;23;20006;-77
2023/03/13 07:06:21;;;;;;;5.35;2.10;;;;;;;;;;6132420;23;20020;-77
2023/03/13 07:08:47;;;;;;;3.83;2.38;;;;;;;;;;6128695;23;20097;-74
2023/03/13 07:11:13;;;;;;;5.32;2.17;;;;;;;;;;6121158;23;20009;-73
2023/03/13 07:13:39;;;;;;;4.40;2.15;;;;;;;;;;6121042;23;20002;-73
2023/03/13 07:16:07;;;;;;;4.75;2.40;;;;;;;;;;6120488;23;20343;-72
2023/03/13 07:18:34;;;;;;;4.47;2.28;;;;;;;;;;6118553;23;20006;-74
2023/03/13 07:21:03;;;;;;;4.30;2.20;;;;;;;;;;6094376;23;20556;-73
2023/03/13 07:23:29;;;;;;;5.93;2.05;;;;;;;;;;6118587;23;20002;-73
2023/03/13 07:26:04;;;;;;;6.10;1.95;;;;;;;;;;6118961;23;20009;-73
2023/03/13 07:28:30;;;;;;;5.07;1.98;;;;;;;;;;6118241;23;20009;-73
2023/03/13 07:31:06;;;;;;;6.20;2.28;;;;;;;;;;6120011;23;20087;-73
2023/03/13 07:33:32;;;;;;;5.63;2.13;;;;;;;;;;6118663;23;20072;-74
2023/03/13 07:35:57;;;;;;;5.00;2.00;;;;;;;;;;6120575;23;20077;-75
2023/03/13 07:38:23;;;;;;;4.85;1.88;;;;;;;;;;6121263;23;20450;-75
2023/03/13 07:40:53;;;;;;;4.35;1.88;;;;;;;;;;6122733;23;20013;-73
2023/03/13 07:43:19;;;;;;;6.22;1.80;;;;;;;;;;6122262;23;20370;-74
2023/03/13 07:46:01;;;;;;;5.03;1.80;;;;;;;;;;6121815;23;20478;-76
2023/03/13 07:48:34;;;;;;;4.07;1.80;;;;;;;;;;6096422;23;20013;-74
2023/03/13 07:51:01;;;;;;;4.20;1.83;;;;;;;;;;6123006;23;20080;-74
2023/03/13 07:53:27;;;;;;;4.38;1.60;;;;;;;;;;6122478;23;20010;-74
2023/03/13 07:55:54;;;;;;;4.75;1.70;;;;;;;;;;6122716;23;19998;-73
2023/03/13 07:58:20;;;;;;;3.20;1.70;;;;;;;;;;6122154;23;20142;-73
2023/03/13 08:00:45;;;;;;;4.05;1.70;;;;;;;;;;6122560;23;20442;-73
2023/03/13 08:03:11;;;;;;;3.55;1.73;;;;;;;;;;6096210;23;20062;-73
2023/03/13 08:05:36;;;;;;;5.47;1.90;;;;;;;;;;6122608;23;20033;-73
2023/03/13 08:08:01;;;;;;;6.25;1.95;;;;;;;;;;6122509;23;20539;-73
2023/03/13 08:10:27;;;;;;;5.78;2.30;;;;;;;;;;6122984;23;20073;-73
2023/03/13 08:12:52;;;;;;;5.65;1.90;;;;;;;;;;6122440;23;20085;-73
2023/03/13 08:15:22;;;;;;;6.72;2.40;;;;;;;;;;6122683;23;20002;-73
2023/03/13 08:17:48;;;;;;;8.97;2.27;;;;;;;;;;6122642;23;20006;-73
2023/03/13 08:20:14;;;;;;;6.28;1.88;;;;;;;;;;6122456;23;20017;-77
2023/03/13 08:22:39;;;;;;;5.18;1.60;;;;;;;;;;6122372;23;20006;-74
2023/03/13 08:25:05;;;;;;;4.45;1.98;;;;;;;;;;6122630;23;20040;-74
2023/03/13 08:27:30;;;;;;;7.25;2.22;;;;;;;;;;6122367;23;19998;-73
2023/03/13 08:29:55;;;;;;;4.28;1.80;;;;;;;;;;6096840;23;20002;-72
2023/03/13 08:32:21;;;;;;;5.50;1.58;;;;;;;;;;6096642;23;20094;-73
2023/03/13 08:34:46;;;;;;;4.82;1.20;;;;;;;;;;6122423;23;20072;-72
2023/03/13 08:37:14;;;;;;;4.53;1.55;;;;;;;;;;6122473;23;20010;-72
2023/03/13 08:39:40;;;;;;;3.25;1.30;;;;;;;;;;6123259;23;20017;-73
2023/03/13 08:42:10;;;;;;;4.85;1.25;;;;;;;;;;6124412;23;20006;-73
2023/03/13 08:44:35;;;;;;;6.32;1.27;;;;;;;;;;6124379;23;20026;-72
2023/03/13 08:47:00;;;;;;;3.53;1.10;;;;;;;;;;6124419;23;19997;-74
2023/03/13 08:49:26;;;;;;;2.75;1.00;;;;;;;;;;6124537;23;20002;-74
2023/03/13 08:51:51;;;;;;;3.20;1.10;;;;;;;;;;6124502;23;20009;-72
2023/03/13 08:54:17;;;;;;;4.78;1.60;;;;;;;;;;6124044;23;20486;-74
2023/03/13 08:56:42;;;;;;;3.70;1.50;;;;;;;;;;6124218;23;20077;-73
2023/03/13 08:59:09;;;;;;;2.75;1.20;;;;;;;;;;6123854;23;20014;-73
2023/03/13 09:01:35;;;;;;;3.35;1.10;;;;;;;;;;6124921;23;20010;-72
2023/03/13 09:04:02;;;;;;;7.15;1.27;;;;;;;;;;6124036;23;20025;-71
2023/03/13 09:06:27;;;;;;;4.05;1.33;;;;;;;;;;6124497;23;20041;-74
2023/03/13 09:08:56;;;;;;;4.72;1.15;;;;;;;;;;6124188;23;20015;-73
2023/03/13 09:11:22;;;;;;;5.53;1.40;;;;;;;;;;6124452;23;20420;-74
2023/03/13 09:13:49;;;;;;;4.32;1.20;;;;;;;;;;6123746;23;20419;-71
2023/03/13 09:16:17;;;;;;;4.20;1.30;;;;;;;;;;6124370;23;20077;-73
2023/03/13 09:18:45;;;;;;;3.40;1.23;;;;;;;;;;6124075;23;20320;-73
2023/03/13 09:21:14;;;;;;;5.53;1.20;;;;;;;;;;6124194;23;20448;-74
2023/03/13 09:23:39;;;;;;;4.25;1.13;;;;;;;;;;6123971;23;20018;-74
2023/03/13 09:26:05;;;;;;;6.20;1.42;;;;;;;;;;6124116;23;20478;-74
2023/03/13 09:28:34;;;;;;;3.00;1.20;;;;;;;;;;6123892;23;20002;-74
2023/03/13 09:31:18;;;;;;;4.97;1.33;;;;;;;;;;6124109;23;20028;-73
2023/03/13 09:33:44;;;;;;;4.70;1.33;;;;;;;;;;6124005;23;20077;-73
2023/03/13 09:36:11;;;;;;;5.10;1.20;;;;;;;;;;6123899;23;20077;-72
2023/03/13 09:38:37;;;;;;;3.25;1.23;;;;;;;;;;6123806;23;20592;-73
2023/03/13 09:41:10;;;;;;;4.35;1.50;;;;;;;;;;6123885;23;20462;-73
2023/03/13 09:43:51;;;;;;;4.72;1.60;;;;;;;;;;6123786;23;20411;-73
2023/03/13 09:46:30;;;;;;;;;;;;;;;;;;6124323;23;20026;-71
2023/03/13 09:49:09;;;;;;;3.25;1.00;;;;;;;;;;6123543;23;20253;-72
2023/03/13 09:51:39;;;;;;;5.93;1.55;;;;;;;;;;6123497;23;20320;-73
2023/03/13 09:54:22;;;;;;;4.57;1.50;;;;;;;;;;6123700;23;20009;-73
2023/03/13 09:57:12;;;;;;;4.60;1.67;;;;;;;;;;6123779;23;20002;-74
2023/03/13 09:59:51;;;;;;;5.20;1.45;;;;;;;;;;6123095;23;20065;-73
2023/03/13 10:02:28;;;;;;;6.03;1.75;;;;;;;;;;6123937;23;20338;-73
2023/03/13 10:05:03;;;;;;;6.93;1.40;;;;;;;;;;6123354;23;20006;-72
2023/03/13 10:07:29;;;;;;;5.63;1.60;;;;;;;;;;6124025;23;20002;-73
2023/03/13 10:09:54;;;;;;;6.72;1.67;;;;;;;;;;6123537;23;20010;-73
2023/03/13 10:12:27;;;;;;;7.53;2.15;;;;;;;;;;6123813;23;20081;-75
2023/03/13 10:15:06;;;;;;;4.97;1.67;;;;;;;;;;6123360;23;20006;-75
2023/03/13 10:17:33;;;;;;;4.07;1.75;;;;;;;;;;6123726;23;20518;-74
2023/03/13 10:20:24;;;;;;;8.43;1.70;;;;;;;;;;6123250;23;20006;-74
2023/03/13 10:23:01;;;;;;;7.95;1.90;;;;;;;;;;6123617;23;20073;-73
2023/03/13 10:25:37;;;;;;;9.07;2.28;;;;;;;;;;6123167;23;20088;-73
2023/03/13 10:28:03;;;;;;;5.07;1.90;;;;;;;;;;6123535;23;20001;-74
2023/03/13 10:30:38;;;;;;;4.03;1.90;;;;;;;;;;6123585;23;20056;-75
2023/03/13 10:33:06;;;;;;;6.50;1.90;;;;;;;;;;6123743;23;20033;-74
2023/03/13 10:35:38;;;;;;;9.43;1.90;;;;;;;;;;6123380;23;20064;-74
2023/03/13 10:38:16;;;;;;;7.60;2.00;;;;;;;;;;6123610;23;20018;-74
2023/03/13 10:40:41;;;;;;;6.63;2.00;;;;;;;;;;6123020;23;20016;-74
2023/03/13 10:43:18;;;;;;;5.72;1.90;;;;;;;;;;6123260;23;20089;-74
2023/03/13 10:45:43;;;;;;;9.07;1.95;;;;;;;;;;6123379;23;20008;-74
2023/03/13 10:48:13;;;;;;;7.05;2.03;;;;;;;;;;6123622;23;20073;-75
2023/03/13 10:50:42;;;;;;;8.13;1.83;;;;;;;;;;6123283;23;20025;-74
2023/03/13 10:53:24;;;;;;;6.32;2.08;;;;;;;;;;6123605;23;20430;-74
2023/03/13 10:56:02;;;;;;;7.15;1.90;;;;;;;;;;6123062;23;20450;-74
2023/03/13 10:58:40;;;;;;;6.45;2.10;;;;;;;;;;6122802;23;20073;-74
2023/03/13 11:01:21;;;;;;;9.98;2.10;;;;;;;;;;6096949;23;20010;-74
2023/03/13 11:03:48;;;;;;;8.63;2.30;;;;;;;;;;6122978;23;20320;-74
2023/03/13 11:06:32;;;;;;;10.80;2.20;;;;;;;;;;6096971;23;20010;-75
2023/03/13 11:09:18;;;;;;;8.90;2.10;;;;;;;;;;6123079;23;20009;-76
2023/03/13 11:11:44;;;;;;;8.82;2.72;;;;;;;;;;6122850;23;20010;-74
2023/03/13 11:14:19;;;;;;;8.52;2.88;;;;;;;;;;6122890;23;20017;-74
2023/03/13 11:16:49;;;;;;;7.47;2.83;;;;;;;;;;6096872;23;20088;-75
2023/03/13 11:19:51;;;;;;;9.52;2.67;;;;;;;;;;6122797;23;20057;-76
2023/03/13 11:22:27;;;;;;;8.88;2.65;;;;;;;;;;6123248;23;20006;-74
2023/03/13 11:25:00;;;;;;;6.40;2.30;;;;;;;;;;6122923;23;20093;-73
2023/03/13 11:27:55;;;;;;;7.40;2.00;;;;;;;;;;6123026;23;20010;-73
2023/03/13 11:30:59;;;;;;;4.65;1.70;;;;;;;;;;6122934;23;20013;-73
2023/03/13 11:33:37;;;;;;;7.35;1.80;;;;;;;;;;6122762;23;20002;-75
2023/03/13 11:36:24;;;;;;;9.15;2.00;;;;;;;;;;6122376;23;20064;-75
2023/03/13 11:38:58;;;;;;;5.25;1.58;;;;;;;;;;6122985;23;20012;-74
2023/03/13 11:41:46;;;;;;;7.20;1.67;;;;;;;;;;6122696;23;20009;-74
2023/03/13 11:44:20;;;;;;;6.78;1.60;;;;;;;;;;6123224;23;20006;-74
2023/03/13 11:47:25;;;;;;;6.75;2.17;;;;;;;;;;6096766;23;20006;-75
2023/03/13 11:50:00;;;;;;;10.20;2.05;;;;;;;;;;6122695;23;20026;-74
2023/03/13 11:52:49;;;;;;;14.32;1.70;;;;;;;;;;6123221;23;20009;-74
2023/03/13 11:55:31;;;;;;;6.13;1.55;;;;;;;;;;6122444;23;20002;-74
2023/03/13 11:58:28;;;;;;;7.82;1.80;;;;;;;;;;6122688;23;20006;-74
2023/03/13 12:01:04;;;;;;;7.65;2.10;;;;;;;;;;6018200;23;20033;-75
2023/03/13 12:04:00;;;;;;;7.75;2.05;;;;;;;;;;6123106;23;20048;-74
2023/03/13 12:06:33;;;;;;;5.43;1.60;;;;;;;;;;6096454;23;20466;-74
2023/03/13 12:09:42;;;;;;;7.63;2.05;;;;;;;;;;6122768;23;20422;-73
2023/03/13 12:12:28;;;;;;;6.28;1.90;;;;;;;;;;5976380;24;20016;-74
2023/03/13 12:14:59;;;;;;;7.38;2.13;;;;;;;;;;6120944;23;20084;-73
2023/03/13 12:17:33;;;;;;;9.02;2.53;;;;;;;;;;6124798;23;20006;-73
2023/03/13 12:20:20;;;;;;;9.43;1.90;;;;;;;;;;6098484;23;20450;-73
2023/03/13 12:23:23;;;;;;;7.65;1.83;;;;;;;;;;6098722;23;20044;-75
2023/03/13 12:26:11;;;;;;;7.90;2.10;;;;;;;;;;6124241;23;20033;-74
2023/03/13 12:28:42;;;;;;;6.88;1.85;;;;;;;;;;6124428;23;20038;-74
2023/03/13 12:31:36;;;;;;;5.35;1.67;;;;;;;;;;6124431;23;20037;-73
2023/03/13 12:34:29;;;;;;;7.05;2.42;;;;;;;;;;6117327;23;20037;-72
2023/03/13 12:37:22;;;;;;;5.97;2.00;;;;;;;;;;6124295;23;20495;-74
2023/03/13 12:39:54;;;;;;;6.28;2.10;;;;;;;;;;6124346;23;20571;-74
2023/03/13 12:42:19;;;;;;;8.07;1.80;;;;;;;;;;6124445;23;20013;-73
2023/03/13 12:44:45;;;;;;;4.82;1.80;;;;;;;;;;6124460;23;20021;-73
2023/03/13 12:47:22;;;;;;;9.07;2.30;;;;;;;;;;6123996;23;20002;-73
2023/03/13 12:49:55;;;;;;;7.82;2.10;;;;;;;;;;6124387;23;20009;-74
2023/03/13 12:52:47;;;;;;;5.75;1.77;;;;;;;;;;6124485;23;20006;-75
2023/03/13 12:55:36;;;;;;;6.93;2.03;;;;;;;;;;6124074;23;20032;-74
2023/03/13 12:58:39;;;;;;;8.93;2.25;;;;;;;;;;6124061;23;20005;-74
2023/03/13 13:01:06;;;;;;;6.28;2.20;;;;;;;;;;6123851;23;20010;-74
2023/03/13 13:03:52;;;;;;;6.22;2.20;;;;;;;;;;6124140;23;20426;-75
2023/03/13 13:06:18;;;;;;;7.78;2.35;;;;;;;;;;6123968;23;20007;-74
2023/03/13 13:09:03;;;;;;;6.68;2.13;;;;;;;;;;6124947;23;20100;-76
2023/03/13 13:11:38;;;;;;;7.82;2.70;;;;;;;;;;6098125;23;20455;-75
2023/03/13 13:14:26;;;;;;;8.77;2.42;;;;;;;;;;6124368;23;20052;-75
2023/03/13 13:17:18;;;;;;;5.90;2.20;;;;;;;;;;6052658;23;20010;-75
2023/03/13 13:19:46;;;;;;;11.15;2.45;;;;;;;;;;6124113;23;20484;-75
2023/03/13 13:22:35;;;;;;;5.05;2.33;;;;;;;;;;6124061;23;20133;-74
2023/03/13 13:25:10;;;;;;;9.73;2.45;;;;;;;;;;6124153;23;20010;-74
2023/03/13 13:27:35;;;;;;;7.28;2.40;;;;;;;;;;6123396;23;20149;-74
2023/03/13 13:30:15;;;;;;;7.50;2.65;;;;;;;;;;6124022;23;20028;-74
2023/03/13 13:32:45;;;;;;;6.13;3.08;;;;;;;;;;6124121;23;20414;-74
2023/03/13 13:35:21;;;;;;;8.27;2.63;;;;;;;;;;6124054;23;20012;-73
2023/03/13 13:37:47;;;;;;;7.15;2.67;;;;;;;;;;6097840;23;20085;-74
2023/03/13 13:40:22;;;;;;;7.18;2.70;;;;;;;;;;6123812;23;20102;-75
2023/03/13 13:42:54;;;;;;;8.18;2.88;;;;;;;;;;6123754;23;20013;-73
2023/03/13 13:45:24;;;;;;;9.68;2.80;;;;;;;;;;6124288;23;20002;-74
2023/03/13 13:48:10;;;;;;;8.52;2.55;;;;;;;;;;6123774;23;20002;-72
2023/03/13 13:50:36;;;;;;;6.28;2.20;;;;;;;;;;6123654;23;20417;-74
2023/03/13 13:53:41;;;;;;;6.00;2.28;;;;;;;;;;6123860;23;20030;-74
2023/03/13 13:56:27;;;;;;;7.80;2.80;;;;;;;;;;6123742;23;20010;-75
2023/03/13 13:58:58;;;;;;;6.45;2.67;;;;;;;;;;6123625;23;20013;-74
2023/03/13 14:01:24;;;;;;;10.75;3.00;;;;;;;;;;6123737;23;20069;-74
2023/03/13 14:03:52;;;;;;;7.68;2.80;;;;;;;;;;6124008;23;20006;-73
2023/03/13 14:06:30;;;;;;;7.10;3.22;;;;;;;;;;6123530;23;20025;-74
2023/03/13 14:09:10;;;;;;;6.93;3.20;;;;;;;;;;6123931;23;20002;-73
2023/03/13 14:11:37;;;;;;;7.67;3.20;;;;;;;;;;6123409;23;20013;-76
2023/03/13 14:14:14;;;;;;;8.43;3.13;;;;;;;;;;6123702;23;20057;-75
2023/03/13 14:16:45;;;;;;;8.45;3.22;;;;;;;;;;6123220;23;20028;-74
2023/03/13 14:19:36;;;;;;;8.68;3.22;;;;;;;;;;6123743;23;20039;-74
2023/03/13 14:22:05;;;;;;;8.98;3.72;;;;;;;;;;6123421;23;20006;-74
2023/03/13 14:24:30;;;;;;;7.25;3.30;;;;;;;;;;6123787;23;20012;-73
2023/03/13 14:26:56;;;;;;;9.45;3.90;;;;;;;;;;6123206;23;20030;-75
2023/03/13 14:29:24;;;;;;;9.45;3.90;;;;;;;;;;6123788;23;20018;-75
2023/03/13 14:31:56;;;;;;;9.93;3.67;;;;;;;;;;6123158;23;20415;-74
2023/03/13 14:34:23;;;;;;;10.52;4.15;;;;;;;;;;6124022;23;20010;-75
2023/03/13 14:36:52;;;;;;;8.35;3.60;;;;;;;;;;6122981;23;20077;-73
2023/03/13 14:39:34;;;;;;;15.10;4.00;;;;;;;;;;6123780;23;20033;-73
2023/03/13 14:42:11;;;;;;;8.65;3.80;;;;;;;;;;6123135;23;20531;-73
2023/03/13 14:44:39;;;;;;;7.90;3.90;;;;;;;;;;6123581;23;20010;-74
2023/03/13 14:47:08;;;;;;;7.72;3.70;;;;;;;;;;6122865;23;20014;-75
2023/03/13 14:49:34;;;;;;;10.27;3.60;;;;;;;;;;6123463;23;20005;-73
2023/03/13 14:51:59;;;;;;;10.35;4.55;;;;;;;;;;6123055;23;20117;-74
2023/03/13 14:54:26;;;;;;;11.38;4.25;;;;;;;;;;6123477;23;20037;-74
2023/03/13 14:57:16;;;;;;;10.02;3.92;;;;;;;;;;6122856;23;20013;-73
2023/03/13 14:59:42;;;;;;;7.03;3.40;;;;;;;;;;6123092;23;20454;-73
2023/03/13 15:02:20;;;;;;;8.82;3.42;;;;;;;;;;6123090;23;20026;-74